Woodstock, VA (22664)

7:18 PM EST on January 18, 2017 (GMT -0500)
Massanutten | | Change Station
Active Advisory: Small Craft Advisory

Elev 860 ft 38.88 °N, 78.51 °W | Updated 25 seconds ago

Clear
Clear
44.6 °F
Feels Like 45 °F
N
3.0
Wind Variable Wind from West

Today
High -- | Low -- °F
--% Chance of Precip.
Yesterday
High -- | Low -- °F
Precip. -- in
Pressure 30.06 in
Visibility 10.0 miles
Clouds Clear
Windchill 45 °F
Dew Point 35 °F
Humidity 70%
Rainfall 0.00 in
Snow Depth Not available.
7:29 AM 5:19 PM
Waning Gibbous, 59% visible
METAR KLUA 182355Z AUTO 00000KT 10SM CLR 07/03 A3006 RMK AO2
Pressure 30.06 in
Visibility 10.0 miles
Clouds Clear
Windchill 45 °F
Dew Point 35 °F
Humidity 70%
Rainfall 0.00 in
Snow Depth Not available.
7:29 AM 5:19 PM
Waning Gibbous, 59% visible
METAR KLUA 182355Z AUTO 00000KT 10SM CLR 07/03 A3006 RMK AO2

Get Your Daily Forecast Email!

Thanks for signing up!

Be on the lookout for a verification email in your inbox.

You'll start receiving the daily forecast at 8 AM.

×

10-Day Weather Forecast

Almanac

Astronomy

Jan. 18, 2017 Rise Set
Actual Time
Civil Twilight
Nautical Twilight
Astronomical Twilight
Moon
Length of Visible Light
Length of Day
Tomorrow will be .
, % of the Moon is Illuminated

Today's Extremes

State Highs State Lows

Community

WunderPhotos

Upload Photos

1,962,540 photos uploaded!

WunderBlog® & News

Nearby

Air Quality

  Air Quality AQ Index Pollutant
Not available.

Snow Depth

Station Depth Elevation

Earthquake Activity

City Distance Mag. Time & Date
Minimum magnitude displayed is 2.5.

Coastal Water Temperatures

Place Temperature

Stations

Nearby Weather Stations

Station Location Temp. Windchill Dew Point Humidity Wind Precip. Elev Updated Type
                   

Watches & Warnings

Small Craft Advisory
Issued: 3:27 PM EST Jan. 18, 2017 – National Weather Service

... Small Craft Advisory remains in effect until 8 PM EST this
evening...

* winds... 18 to 33 knots within the Small Craft Advisory.

Precautionary/preparedness actions...

A Small Craft Advisory means winds of 18 to 33 knots are imminent
or occurring. Boaters operating smaller vessels should avoid
navigating in these conditions.